CSS772 ELLX-ESGG
Flight info
| Callsign | CSS772 |
|---|---|
| Flight time | N/A |
| Altitude | 23000 |
| Route | ASMOX1R ASMOX Y891 ROPUV/N0494F330 L607 UBIDU L984 RUDUS/N0457F230 Z10 GISEM/N0491F340 N850 WRB/N0455F230 P12 NORTA/N0485F400 P605 HAM/N0489F410 P605 GESKA/N0491F400 Z706 NOVPO L997 RISMA RISMA3T |
| Aircraft | B77L/H-SDE1E2E3FGHIJ2J3J4J5M1RWXY/LB1D1 |
Departure
| Time | 2026-05-04 13:31 |
|---|---|
| Airport | Luxembourg-Findel International Airport (ELLX) |
Arrival
| Time | N/A |
|---|---|
| Airport | Göteborg Landvetter Airport (ESGG) |
| Time | Latitude | Longitude | Altitude | Speed | Heading |
|---|---|---|---|---|---|
| 2026-05-04 13:05 | 49.63799 | 6.22741 | 1226 ft | 0 kts | 59° |
| 2026-05-04 13:23 | 49.63791 | 6.22726 | 1226 ft | 2 kts | 35° |
| 2026-05-04 13:23 | 49.63778 | 6.22713 | 1225 ft | 2 kts | 36° |
| 2026-05-04 13:23 | 49.63766 | 6.22699 | 1225 ft | 2 kts | 38° |
| 2026-05-04 13:24 | 49.63756 | 6.22683 | 1224 ft | 2 kts | 63° |
| 2026-05-04 13:24 | 49.63753 | 6.22661 | 1223 ft | 2 kts | 100° |
| 2026-05-04 13:24 | 49.63758 | 6.22642 | 1223 ft | 2 kts | 132° |
| 2026-05-04 13:25 | 49.63768 | 6.22629 | 1223 ft | 0 kts | 150° |
| 2026-05-04 13:26 | 49.63768 | 6.22630 | 1223 ft | 0 kts | 150° |
| 2026-05-04 13:26 | 49.63739 | 6.22655 | 1222 ft | 9 kts | 149° |
| 2026-05-04 13:26 | 49.63702 | 6.22688 | 1221 ft | 11 kts | 149° |
| 2026-05-04 13:27 | 49.63693 | 6.22696 | 1220 ft | 4 kts | 149° |
| 2026-05-04 13:27 | 49.63641 | 6.22743 | 1219 ft | 12 kts | 149° |
| 2026-05-04 13:27 | 49.63546 | 6.22828 | 1217 ft | 19 kts | 148° |
| 2026-05-04 13:27 | 49.63525 | 6.22986 | 1219 ft | 17 kts | 57° |
| 2026-05-04 13:28 | 49.63572 | 6.23111 | 1223 ft | 10 kts | 60° |
| 2026-05-04 13:28 | 49.63608 | 6.23209 | 1223 ft | 10 kts | 62° |
| 2026-05-04 13:28 | 49.63644 | 6.23305 | 1224 ft | 10 kts | 56° |
| 2026-05-04 13:28 | 49.63670 | 6.23404 | 1223 ft | 8 kts | 92° |
| 2026-05-04 13:29 | 49.63664 | 6.23429 | 1223 ft | 0 kts | 128° |
| 2026-05-04 13:29 | 49.63648 | 6.23449 | 1222 ft | 6 kts | 146° |
| 2026-05-04 13:29 | 49.63584 | 6.23500 | 1221 ft | 13 kts | 163° |
| 2026-05-04 13:29 | 49.63502 | 6.23462 | 1221 ft | 10 kts | 236° |
| 2026-05-04 13:30 | 49.63476 | 6.23388 | 1222 ft | 0 kts | 236° |
| 2026-05-04 13:30 | 49.63476 | 6.23386 | 1222 ft | 1 kts | 236° |
| 2026-05-04 13:30 | 49.63366 | 6.23115 | 1218 ft | 71 kts | 240° |
| 2026-05-04 13:31 | 49.63278 | 6.22882 | 1210 ft | 96 kts | 239° |
| 2026-05-04 13:31 | 49.63028 | 6.22226 | 1214 ft | 141 kts | 239° |
| 2026-05-04 13:31 | 49.62441 | 6.20687 | 1469 ft | 180 kts | 240° |
| 2026-05-04 13:31 | 49.61828 | 6.18995 | 2414 ft | 183 kts | 239° |
| 2026-05-04 13:32 | 49.61233 | 6.17382 | 3496 ft | 183 kts | 237° |
| 2026-05-04 13:32 | 49.60546 | 6.15538 | 3939 ft | 222 kts | 237° |
| 2026-05-04 13:32 | 49.59668 | 6.13195 | 3992 ft | 281 kts | 238° |
| 2026-05-04 13:32 | 49.58625 | 6.10396 | 4399 ft | 322 kts | 238° |
| 2026-05-04 13:33 | 49.57538 | 6.07455 | 4920 ft | 323 kts | 238° |
| 2026-05-04 13:33 | 49.56480 | 6.04387 | 5700 ft | 343 kts | 246° |
| 2026-05-04 13:33 | 49.56167 | 6.00859 | 7647 ft | 344 kts | 271° |
| 2026-05-04 13:33 | 49.56839 | 5.97492 | 9754 ft | 335 kts | 295° |
| 2026-05-04 13:34 | 49.58273 | 5.94857 | 11546 ft | 330 kts | 318° |
| 2026-05-04 13:34 | 49.60263 | 5.93206 | 12869 ft | 337 kts | 341° |
| 2026-05-04 13:34 | 49.62631 | 5.92810 | 13692 ft | 357 kts | 5° |
| 2026-05-04 13:34 | 49.65079 | 5.93949 | 13972 ft | 390 kts | 29° |
| 2026-05-04 13:35 | 49.67381 | 5.96477 | 13990 ft | 424 kts | 41° |
| 2026-05-04 13:35 | 49.71760 | 6.02365 | 14655 ft | 448 kts | 42° |
| 2026-05-04 13:35 | 49.74037 | 6.05453 | 14977 ft | 442 kts | 42° |
| 2026-05-04 13:36 | 49.76372 | 6.08624 | 14975 ft | 439 kts | 43° |
| 2026-05-04 13:36 | 49.78618 | 6.11678 | 14996 ft | 438 kts | 43° |
| 2026-05-04 13:36 | 49.80900 | 6.14787 | 14991 ft | 437 kts | 42° |
| 2026-05-04 13:36 | 49.82924 | 6.17547 | 14979 ft | 437 kts | 42° |
| 2026-05-04 13:37 | 49.85190 | 6.20641 | 15009 ft | 436 kts | 42° |
| 2026-05-04 13:37 | 49.87469 | 6.23756 | 15006 ft | 436 kts | 42° |
| 2026-05-04 13:37 | 49.89796 | 6.26723 | 14967 ft | 436 kts | 36° |
| 2026-05-04 13:37 | 49.91490 | 6.28366 | 14990 ft | 436 kts | 29° |
| 2026-05-04 13:38 | 49.95152 | 6.31106 | 14974 ft | 437 kts | 25° |
| 2026-05-04 13:38 | 49.97890 | 6.33060 | 14993 ft | 438 kts | 25° |
| 2026-05-04 13:38 | 50.00680 | 6.35051 | 14987 ft | 438 kts | 25° |
| 2026-05-04 13:38 | 50.03426 | 6.37048 | 14990 ft | 438 kts | 27° |
| 2026-05-04 13:39 | 50.05993 | 6.39565 | 14959 ft | 437 kts | 38° |
| 2026-05-04 13:39 | 50.08248 | 6.42735 | 14984 ft | 436 kts | 48° |
| 2026-05-04 13:39 | 50.10103 | 6.46403 | 14985 ft | 435 kts | 58° |
| 2026-05-04 13:39 | 50.11567 | 6.50497 | 14962 ft | 433 kts | 65° |
| 2026-05-04 13:40 | 50.12880 | 6.54672 | 14980 ft | 432 kts | 66° |
| 2026-05-04 13:40 | 50.14188 | 6.58879 | 15001 ft | 431 kts | 66° |
| 2026-05-04 13:40 | 50.15486 | 6.63064 | 14977 ft | 431 kts | 66° |
| 2026-05-04 13:40 | 50.16786 | 6.67268 | 14992 ft | 431 kts | 66° |
| 2026-05-04 13:41 | 50.18079 | 6.71456 | 14990 ft | 431 kts | 66° |
| 2026-05-04 13:41 | 50.19361 | 6.75614 | 14993 ft | 432 kts | 66° |
| 2026-05-04 13:41 | 50.20213 | 6.78392 | 14990 ft | 431 kts | 67° |
| 2026-05-04 13:42 | 50.21754 | 6.87185 | 14990 ft | 426 kts | 87° |
| 2026-05-04 13:42 | 50.21785 | 6.91745 | 14997 ft | 425 kts | 96° |
| 2026-05-04 13:42 | 50.21578 | 6.96329 | 14996 ft | 424 kts | 97° |
| 2026-05-04 13:42 | 50.21347 | 7.00900 | 14992 ft | 423 kts | 97° |
| 2026-05-04 13:43 | 50.21109 | 7.05496 | 14999 ft | 423 kts | 97° |
| 2026-05-04 13:43 | 50.20871 | 7.10042 | 14993 ft | 423 kts | 97° |
| 2026-05-04 13:43 | 50.20626 | 7.14665 | 14995 ft | 424 kts | 97° |
| 2026-05-04 13:43 | 50.20384 | 7.19198 | 14994 ft | 424 kts | 97° |
| 2026-05-04 13:44 | 50.20136 | 7.23782 | 14991 ft | 423 kts | 97° |
| 2026-05-04 13:44 | 50.19885 | 7.28382 | 14991 ft | 424 kts | 97° |
| 2026-05-04 13:44 | 50.19505 | 7.32896 | 14992 ft | 422 kts | 104° |
| 2026-05-04 13:44 | 50.18700 | 7.37304 | 14994 ft | 422 kts | 110° |
| 2026-05-04 13:45 | 50.17796 | 7.41635 | 14989 ft | 421 kts | 110° |
| 2026-05-04 13:45 | 50.16882 | 7.45967 | 14992 ft | 420 kts | 110° |
| 2026-05-04 13:45 | 50.15967 | 7.50291 | 14983 ft | 420 kts | 110° |
| 2026-05-04 13:45 | 50.15056 | 7.54586 | 14983 ft | 420 kts | 110° |
| 2026-05-04 13:46 | 50.14140 | 7.58896 | 15209 ft | 419 kts | 110° |
| 2026-05-04 13:46 | 50.13224 | 7.63196 | 16148 ft | 425 kts | 110° |
| 2026-05-04 13:46 | 50.12301 | 7.67520 | 17436 ft | 426 kts | 111° |
| 2026-05-04 13:46 | 50.11372 | 7.71863 | 18759 ft | 427 kts | 111° |
| 2026-05-04 13:47 | 50.10437 | 7.76220 | 19762 ft | 436 kts | 111° |
| 2026-05-04 13:47 | 50.09458 | 7.80770 | 20673 ft | 447 kts | 111° |
| 2026-05-04 13:47 | 50.08474 | 7.85337 | 21641 ft | 455 kts | 112° |
| 2026-05-04 13:47 | 50.07473 | 7.90015 | 22537 ft | 463 kts | 110° |
| 2026-05-04 13:48 | 50.06729 | 7.94975 | 22928 ft | 474 kts | 102° |
| 2026-05-04 13:48 | 50.06476 | 8.00081 | 22960 ft | 476 kts | 92° |
| 2026-05-04 13:48 | 50.06746 | 8.05195 | 22960 ft | 477 kts | 83° |
| 2026-05-04 13:48 | 50.07532 | 8.10209 | 22960 ft | 481 kts | 73° |
| 2026-05-04 13:49 | 50.08812 | 8.14980 | 22956 ft | 482 kts | 64° |
| 2026-05-04 13:49 | 50.10563 | 8.19404 | 22965 ft | 484 kts | 54° |
| 2026-05-04 13:49 | 50.12757 | 8.23382 | 22958 ft | 484 kts | 44° |
| 2026-05-04 13:49 | 50.15316 | 8.26759 | 22966 ft | 483 kts | 35° |
| 2026-05-04 13:50 | 50.18142 | 8.29562 | 22969 ft | 482 kts | 30° |
| 2026-05-04 13:50 | 50.20955 | 8.32338 | 22974 ft | 482 kts | 32° |
| 2026-05-04 13:50 | 50.23749 | 8.35328 | 22976 ft | 483 kts | 34° |
| 2026-05-04 13:50 | 50.26445 | 8.38411 | 22974 ft | 483 kts | 36° |
| 2026-05-04 13:51 | 50.29123 | 8.41622 | 22972 ft | 483 kts | 37° |
| 2026-05-04 13:51 | 50.31679 | 8.44952 | 22971 ft | 483 kts | 40° |
| 2026-05-04 13:51 | 50.34213 | 8.48420 | 22970 ft | 483 kts | 40° |
| 2026-05-04 13:51 | 50.36708 | 8.51900 | 22967 ft | 483 kts | 41° |
| 2026-05-04 13:52 | 50.41589 | 8.58427 | 22954 ft | 483 kts | 38° |
| 2026-05-04 13:52 | 50.44180 | 8.61735 | 22962 ft | 483 kts | 38° |
| 2026-05-04 13:52 | 50.47198 | 8.65619 | 22956 ft | 483 kts | 39° |
| 2026-05-04 13:53 | 50.49810 | 8.69006 | 22955 ft | 483 kts | 39° |
| 2026-05-04 13:53 | 50.52110 | 8.72003 | 22953 ft | 483 kts | 39° |
| 2026-05-04 13:53 | 50.54736 | 8.75394 | 22952 ft | 482 kts | 37° |
| 2026-05-04 13:54 | 50.60567 | 8.80341 | 22956 ft | 479 kts | 19° |
| 2026-05-04 13:54 | 50.63722 | 8.81988 | 22961 ft | 478 kts | 13° |
| 2026-05-04 13:54 | 50.70182 | 8.84286 | 22961 ft | 476 kts | 10° |
| 2026-05-04 13:55 | 50.73402 | 8.85387 | 22957 ft | 475 kts | 10° |
| 2026-05-04 13:55 | 50.79860 | 8.87607 | 22960 ft | 476 kts | 10° |
| 2026-05-04 13:55 | 50.83110 | 8.88730 | 22957 ft | 475 kts | 10° |
| 2026-05-04 13:56 | 50.86347 | 8.89800 | 22954 ft | 476 kts | 9° |
| 2026-05-04 13:56 | 50.90044 | 8.91004 | 22959 ft | 475 kts | 9° |
| 2026-05-04 13:56 | 50.96455 | 8.93103 | 22952 ft | 475 kts | 9° |
| 2026-05-04 13:57 | 50.99708 | 8.94172 | 22953 ft | 475 kts | 9° |
| 2026-05-04 13:57 | 51.02934 | 8.95235 | 22956 ft | 475 kts | 9° |
| 2026-05-04 13:58 | 51.12635 | 8.98237 | 22958 ft | 476 kts | 8° |
| 2026-05-04 13:58 | 51.19132 | 9.00408 | 22966 ft | 477 kts | 9° |
| 2026-05-04 13:58 | 51.21938 | 9.01358 | 22962 ft | 477 kts | 9° |
| 2026-05-04 13:59 | 51.25158 | 9.02449 | 22952 ft | 477 kts | 9° |
| 2026-05-04 13:59 | 51.28323 | 9.03521 | 22961 ft | 477 kts | 9° |
| 2026-05-04 14:00 | 51.44700 | 9.09270 | 22962 ft | 478 kts | 15° |